createdAt,value
2019-02-10T00:00:02.390Z,83.6
2019-02-10T00:01:02.345Z,84.5
2019-02-10T00:02:02.228Z,83.9
2019-02-10T00:03:02.532Z,84.1
2019-02-10T00:04:02.419Z,84.3
2019-02-10T00:05:02.338Z,84.3
2019-02-10T00:06:02.243Z,84.4
2019-02-10T00:07:02.142Z,84.4
2019-02-10T00:08:02.028Z,84.4
2019-02-10T00:09:01.908Z,84.4
2019-02-10T00:10:01.808Z,84.4
2019-02-10T00:11:01.712Z,84.5
2019-02-10T00:12:01.616Z,84.4
2019-02-10T00:13:01.926Z,84.6
2019-02-10T00:22:59.889Z,81
2019-02-10T00:23:59.796Z,81.8
2019-02-10T00:24:59.706Z,82.1
2019-02-10T00:25:59.587Z,82.1
2019-02-10T00:26:59.468Z,82.4
2019-02-10T00:27:59.375Z,82.5
2019-02-10T00:28:59.259Z,83.2
2019-02-10T00:29:59.143Z,82.6
2019-02-10T00:30:59.092Z,82.7
2019-02-10T00:31:58.974Z,83
2019-02-10T00:32:59.263Z,83.2
2019-02-10T00:33:59.157Z,83.4
2019-02-10T00:34:59.108Z,83.5
2019-02-10T00:35:58.978Z,83.5
2019-02-10T00:36:58.878Z,83.6
2019-02-10T00:37:58.749Z,83.7
2019-02-10T00:38:58.645Z,83.8
2019-02-10T00:39:58.530Z,83.9
2019-02-10T00:40:58.417Z,83.9
2019-02-10T00:41:58.331Z,83.9
2019-02-10T00:42:58.622Z,84.1
2019-02-10T00:43:58.509Z,84.3
2019-02-10T00:44:58.452Z,84.1
2019-02-10T00:45:58.360Z,83.9
2019-02-10T00:46:58.251Z,83.9
2019-02-10T00:47:58.167Z,83.9
2019-02-10T00:48:58.065Z,83.9
2019-02-10T00:49:57.946Z,83.9
2019-02-10T00:50:57.837Z,83.9
2019-02-10T00:51:57.744Z,83.8
2019-02-10T00:52:58.066Z,84.1
2019-02-10T00:53:57.953Z,84.2
2019-02-10T00:54:57.852Z,84.2
2019-02-10T00:55:57.739Z,84.2
2019-02-10T00:56:57.618Z,84.2
2019-02-10T00:57:57.490Z,84.2
2019-02-10T00:58:57.363Z,84.2
2019-02-10T00:59:57.270Z,84.2
2019-02-10T01:00:57.155Z,84.2
2019-02-10T01:01:57.038Z,84.5
2019-02-10T01:02:57.350Z,84.4
2019-02-10T01:03:57.241Z,84.5
2019-02-10T01:04:57.122Z,84.5
2019-02-10T01:05:57.022Z,84.5
2019-02-10T01:06:56.929Z,84.5
2019-02-10T01:07:56.809Z,84.6
2019-02-10T01:08:56.689Z,84.6
2019-02-10T01:09:56.587Z,84.9
2019-02-10T01:10:56.517Z,84.9
2019-02-10T01:11:56.491Z,84.9
2019-02-10T01:12:56.856Z,84.9
2019-02-10T01:13:56.739Z,84.7
2019-02-10T01:14:56.625Z,84.7
2019-02-10T01:15:56.517Z,84.9
2019-02-10T01:16:56.406Z,84.8
2019-02-10T01:17:56.288Z,84.9
2019-02-10T01:18:56.179Z,84.9
2019-02-10T01:19:56.049Z,85
2019-02-10T01:20:55.943Z,85
2019-02-10T01:21:55.856Z,85.1
2019-02-10T01:22:56.166Z,85.3
2019-02-10T01:23:56.047Z,86
2019-02-10T01:24:55.927Z,85.1
2019-02-10T01:25:55.803Z,84.9
2019-02-10T01:26:55.696Z,85
2019-02-10T01:27:55.585Z,85.1
2019-02-10T01:28:55.456Z,85
2019-02-10T01:29:55.331Z,85
2019-02-10T01:30:55.247Z,84.8
2019-02-10T01:31:55.150Z,84.9
2019-02-10T01:32:55.453Z,84.9
2019-02-10T01:33:55.325Z,84.9
2019-02-10T01:34:55.209Z,85.1
2019-02-10T01:35:55.101Z,85.1
2019-02-10T01:36:55.006Z,85.1
2019-02-10T01:37:54.892Z,85
2019-02-10T01:38:54.779Z,85
2019-02-10T01:39:55.072Z,84.9
2019-02-10T01:40:54.974Z,85
2019-02-10T01:41:54.877Z,85
2019-02-10T01:42:55.172Z,85
2019-02-10T01:43:55.066Z,85
2019-02-10T01:44:54.945Z,85.1
2019-02-10T01:45:54.859Z,84.9
2019-02-10T01:46:54.753Z,84.9
2019-02-10T01:47:54.635Z,84.8
2019-02-10T01:48:54.505Z,84.8
2019-02-10T01:49:54.409Z,84.9
2019-02-10T01:50:54.289Z,85
2019-02-10T01:51:54.182Z,84.9
2019-02-10T01:52:54.483Z,85.1
2019-02-10T01:53:54.463Z,85.1
2019-02-10T01:54:54.345Z,85.2
2019-02-10T01:55:54.235Z,85.1
2019-02-10T01:56:54.133Z,85
2019-02-10T01:57:54.025Z,85
2019-02-10T01:58:53.917Z,84.9
2019-02-10T01:59:53.809Z,84.8
2019-02-10T02:00:53.703Z,84.9
2019-02-10T02:01:53.619Z,85
2019-02-10T02:02:53.991Z,85
2019-02-10T02:03:53.895Z,85
2019-02-10T02:04:53.779Z,84.9
2019-02-10T02:05:53.689Z,85
2019-02-10T02:06:58.757Z,85.1
2019-02-10T02:08:00.456Z,85.2
2019-02-10T02:09:00.359Z,85.2
2019-02-10T02:10:00.370Z,85.2
2019-02-10T02:11:00.244Z,85.2
2019-02-10T02:12:00.144Z,85
2019-02-10T02:13:00.453Z,85.1
2019-02-10T02:14:00.335Z,85
2019-02-10T02:15:00.411Z,84.9
2019-02-10T02:16:00.317Z,83.8
2019-02-10T02:17:00.247Z,83.3
2019-02-10T02:20:59.324Z,81.5
2019-02-10T02:21:59.285Z,81.2
2019-02-10T02:22:59.585Z,81.2
2019-02-10T02:23:59.469Z,81.9
2019-02-10T02:24:59.351Z,82.1
2019-02-10T02:25:59.241Z,82.1
2019-02-10T02:26:59.164Z,82.3
2019-02-10T02:27:59.062Z,82.4
2019-02-10T02:28:58.953Z,82.3
2019-02-10T02:29:58.845Z,82.4
2019-02-10T02:30:58.754Z,82.7
2019-02-10T02:31:58.671Z,82.7
2019-02-10T02:32:58.994Z,82.7
2019-02-10T02:33:58.903Z,82.7
2019-02-10T02:34:58.808Z,82.8
2019-02-10T02:35:58.727Z,82.2
2019-02-10T02:37:08.839Z,81.8
2019-02-10T02:38:08.813Z,81.4
2019-02-10T02:43:08.124Z,80.2
2019-02-10T02:45:08.579Z,79.7
2019-02-10T02:46:08.504Z,79.8
2019-02-10T02:47:08.428Z,79.6
2019-02-10T02:49:08.092Z,79.5
2019-02-10T02:51:07.731Z,79.5
2019-02-10T02:52:07.646Z,79.5
2019-02-10T02:53:07.959Z,79.5
2019-02-10T02:54:07.862Z,80.3
2019-02-10T02:55:07.822Z,80.3
2019-02-10T02:56:07.718Z,80.2
2019-02-10T02:57:07.620Z,80.3
2019-02-10T02:58:07.542Z,80.4
2019-02-10T02:59:07.431Z,80.4
2019-02-10T03:00:07.324Z,80.5
2019-02-10T03:01:07.235Z,80.6
2019-02-10T03:02:07.193Z,80.9
2019-02-10T03:03:07.578Z,81.2
2019-02-10T03:04:07.490Z,81.2
2019-02-10T03:05:07.372Z,81.5
2019-02-10T03:06:07.287Z,81.6
2019-02-10T03:07:07.183Z,81.6
2019-02-10T03:08:07.090Z,81.9
2019-02-10T03:09:06.978Z,82.8
2019-02-10T03:10:06.930Z,82.3
2019-02-10T03:11:06.820Z,82.2
2019-02-10T03:12:06.709Z,82.3
2019-02-10T03:13:07.099Z,82.5
2019-02-10T03:14:06.996Z,82.7
2019-02-10T03:15:06.906Z,82.7
2019-02-10T03:16:06.892Z,82.7
2019-02-10T03:17:06.816Z,82.3
2019-02-10T03:18:06.738Z,82.3
2019-02-10T03:19:06.661Z,82.3
2019-02-10T03:20:06.591Z,82.3
2019-02-10T03:21:06.548Z,82.4
2019-02-10T03:22:06.445Z,82.1
2019-02-10T03:23:06.813Z,82.3
2019-02-10T03:24:06.712Z,82.3
2019-02-10T03:25:06.616Z,82.4
2019-02-10T03:26:06.533Z,82.4
2019-02-10T03:27:06.433Z,82.4
2019-02-10T03:28:06.384Z,82.3
2019-02-10T03:29:06.304Z,82.3
2019-02-10T03:30:06.227Z,82.3
2019-02-10T03:31:06.205Z,82.4
2019-02-10T03:32:06.258Z,82.5
2019-02-10T03:33:06.642Z,82.4
2019-02-10T03:34:06.792Z,82.3
2019-02-10T03:35:06.825Z,82.4
2019-02-10T03:36:06.726Z,82.4
2019-02-10T03:37:06.622Z,82.5
2019-02-10T03:38:06.526Z,82.6
2019-02-10T03:39:06.440Z,82.5
2019-02-10T03:40:06.338Z,82.4
2019-02-10T03:41:06.234Z,82.4
2019-02-10T03:42:06.122Z,82
2019-02-10T03:43:06.461Z,81.7
2019-02-10T03:44:06.358Z,81.8
2019-02-10T03:45:06.420Z,81.8
2019-02-10T03:46:06.310Z,81.8
2019-02-10T03:47:06.225Z,81.9
2019-02-10T03:48:06.129Z,81.9
2019-02-10T03:49:06.010Z,81.9
2019-02-10T03:50:05.922Z,82
2019-02-10T03:51:05.843Z,81.8
2019-02-10T03:52:05.772Z,81.6
2019-02-10T03:53:06.091Z,81.6
2019-02-10T03:54:06.038Z,81.6
2019-02-10T03:55:05.957Z,81.7
2019-02-10T03:56:05.854Z,81.7
2019-02-10T03:57:05.743Z,81.8
2019-02-10T03:58:05.742Z,81.8
2019-02-10T03:59:05.634Z,81.8
2019-02-10T04:00:05.521Z,81.2
2019-02-10T04:01:05.436Z,81.3
2019-02-10T04:02:05.362Z,81.4
2019-02-10T04:03:05.740Z,81.1
2019-02-10T04:04:05.656Z,81.4
2019-02-10T04:05:05.561Z,82
2019-02-10T04:06:05.458Z,81.2
2019-02-10T04:07:05.402Z,81
2019-02-10T04:08:05.295Z,80.8
2019-02-10T04:09:05.229Z,80.6
2019-02-10T04:10:05.144Z,80.6
2019-02-10T04:11:05.036Z,80.8
2019-02-10T04:12:04.970Z,80.9
2019-02-10T04:13:05.370Z,81.1
2019-02-10T04:14:05.260Z,80.7
2019-02-10T04:15:05.182Z,80.7
2019-02-10T04:16:05.081Z,80.8
2019-02-10T04:17:04.977Z,80.9
2019-02-10T04:18:04.915Z,80.9
2019-02-10T04:19:04.856Z,80.8
2019-02-10T04:20:04.747Z,80.9
2019-02-10T04:21:04.629Z,80.5
2019-02-10T04:22:04.515Z,80.3
2019-02-10T04:23:04.832Z,80.1
2019-02-10T04:24:04.735Z,80.1
2019-02-10T04:25:04.631Z,80
2019-02-10T04:26:04.541Z,80.2
2019-02-10T04:27:04.447Z,80.3
2019-02-10T04:28:04.347Z,80.2
2019-02-10T04:29:04.256Z,80.1
2019-02-10T04:30:04.146Z,80.1
2019-02-10T04:31:04.057Z,80.3
2019-02-10T04:32:03.943Z,80.5
2019-02-10T04:33:04.264Z,80.3
2019-02-10T04:34:04.175Z,80.5
2019-02-10T04:35:04.062Z,80.2
2019-02-10T04:36:03.951Z,80.3
2019-02-10T04:37:03.838Z,80.3
2019-02-10T04:38:03.720Z,80.2
2019-02-10T04:39:03.675Z,80.3
2019-02-10T04:40:03.552Z,80.1
2019-02-10T04:41:03.444Z,80.1
2019-02-10T04:42:03.347Z,80.2
2019-02-10T04:43:03.663Z,80.2
2019-02-10T04:44:03.567Z,80.2
2019-02-10T04:45:03.521Z,79.8
2019-02-10T04:46:03.439Z,80.2
2019-02-10T04:47:03.350Z,80
2019-02-10T04:48:03.263Z,80.1
2019-02-10T04:49:03.165Z,80.1
2019-02-10T04:50:03.103Z,80
2019-02-10T04:51:03.003Z,79.9
2019-02-10T04:52:02.893Z,80
2019-02-10T04:53:03.217Z,79.8
2019-02-10T04:54:03.137Z,80.1
2019-02-10T04:55:03.083Z,79.8
2019-02-10T04:56:03.022Z,80.1
2019-02-10T04:57:02.907Z,79.7
2019-02-10T04:58:02.811Z,79.8
2019-02-10T04:59:02.688Z,80
2019-02-10T05:00:02.604Z,79.6
2019-02-10T05:01:02.494Z,79.4
2019-02-10T05:02:02.400Z,79.6
2019-02-10T05:03:02.727Z,79.1
2019-02-10T05:04:02.619Z,79.2
2019-02-10T05:05:02.564Z,79
2019-02-10T05:06:02.485Z,78.7
2019-02-10T05:07:02.365Z,78.9
2019-02-10T05:08:02.315Z,78.6
2019-02-10T05:09:02.205Z,78.5
2019-02-10T05:10:02.123Z,78.3
2019-02-10T05:11:02.007Z,78.6
2019-02-10T05:12:01.890Z,78.4
2019-02-10T05:13:02.234Z,78.3
2019-02-10T05:14:02.113Z,78.4
2019-02-10T05:15:02.043Z,78.5
2019-02-10T05:16:01.929Z,78.5
2019-02-10T05:17:01.833Z,78.5
2019-02-10T05:18:01.762Z,78.4
2019-02-10T05:19:01.701Z,78.4
2019-02-10T05:20:01.654Z,78.2
2019-02-10T05:21:01.569Z,77.9
2019-02-10T05:22:01.457Z,77.9
2019-02-10T05:23:01.775Z,77.8
2019-02-10T05:24:04.459Z,77.8
2019-02-10T05:25:04.388Z,77.4
2019-02-10T05:26:04.293Z,77
2019-02-10T05:27:04.177Z,77.3
2019-02-10T05:28:04.051Z,77.7
2019-02-10T05:29:03.956Z,78
2019-02-10T05:30:03.870Z,78.1
2019-02-10T05:31:03.798Z,78.2
2019-02-10T05:32:03.714Z,77.7
2019-02-10T05:33:04.136Z,76.7
2019-02-10T05:34:04.018Z,77.4
2019-02-10T05:35:03.961Z,76.2
2019-02-10T05:36:03.866Z,76.4
2019-02-10T05:37:03.771Z,76.6
2019-02-10T05:38:05.333Z,76
2019-02-10T05:39:05.227Z,75.8
2019-02-10T05:40:05.196Z,76
2019-02-10T05:41:05.082Z,76.1
2019-02-10T05:42:04.995Z,76.1
2019-02-10T05:43:05.360Z,76.2
2019-02-10T05:44:05.248Z,76.4
2019-02-10T05:45:05.153Z,76.1
2019-02-10T05:46:05.072Z,76.6
2019-02-10T05:47:04.965Z,76.7
2019-02-10T05:48:04.930Z,76.6
2019-02-10T05:49:04.826Z,76.9
2019-02-10T05:50:04.706Z,76.5
2019-02-10T05:51:04.636Z,76.4
2019-02-10T05:52:04.555Z,76.6
2019-02-10T05:53:04.856Z,76.5
2019-02-10T05:54:04.759Z,76.4
2019-02-10T05:55:04.695Z,76.7
2019-02-10T05:56:04.704Z,76.4
2019-02-10T05:57:04.631Z,76.1
2019-02-10T05:58:04.545Z,75.9
2019-02-10T05:59:04.445Z,76.1
2019-02-10T06:00:04.362Z,76.2
2019-02-10T06:01:04.272Z,76.6
2019-02-10T06:02:04.196Z,76.4
2019-02-10T06:03:04.562Z,76.2
2019-02-10T06:04:04.456Z,76.1
2019-02-10T06:05:04.358Z,75.9
2019-02-10T06:06:04.256Z,76.3
2019-02-10T06:07:04.174Z,75.9
2019-02-10T06:08:14.233Z,76.3
2019-02-10T06:09:14.117Z,76.5
2019-02-10T06:10:14.038Z,76.5
2019-02-10T06:11:13.942Z,76.9
2019-02-10T06:12:13.846Z,76.9
2019-02-10T06:13:14.212Z,76.9
2019-02-10T06:14:14.123Z,76.9
2019-02-10T06:15:14.038Z,77
2019-02-10T06:16:13.925Z,76.6
2019-02-10T06:17:13.821Z,76.5
2019-02-10T06:18:13.717Z,76.8
2019-02-10T06:19:13.651Z,77.2
2019-02-10T06:20:13.558Z,77.2
2019-02-10T06:21:13.448Z,77.4
2019-02-10T06:22:13.372Z,77.4
2019-02-10T06:23:13.696Z,77.6
2019-02-10T06:24:13.626Z,77.8
2019-02-10T06:25:13.573Z,77.9
2019-02-10T06:26:13.452Z,78
2019-02-10T06:27:13.334Z,77.2
2019-02-10T06:28:13.209Z,76.1
2019-02-10T06:29:13.102Z,76.4
2019-02-10T06:30:13.057Z,75.9
2019-02-10T06:31:12.978Z,75.8
2019-02-10T06:32:12.873Z,75.5
2019-02-10T06:33:13.191Z,75
2019-02-10T06:34:13.088Z,75.9
2019-02-10T06:35:13.052Z,75.6
2019-02-10T06:36:12.941Z,75.6
2019-02-10T06:37:12.888Z,75.4
2019-02-10T06:38:22.631Z,75.6
2019-02-10T06:39:22.859Z,76
2019-02-10T06:40:22.782Z,76.2
2019-02-10T06:41:22.663Z,76
2019-02-10T06:42:22.552Z,76.3
2019-02-10T06:43:22.874Z,76.4
2019-02-10T06:44:22.770Z,75.9
2019-02-10T06:45:22.670Z,76.3
2019-02-10T06:46:22.555Z,76.1
2019-02-10T06:47:22.437Z,75.9
2019-02-10T06:48:22.333Z,76.3
2019-02-10T06:49:22.223Z,76.4
2019-02-10T06:50:22.117Z,76.1
2019-02-10T06:51:22.017Z,76.4
2019-02-10T06:52:21.898Z,76.5
2019-02-10T06:53:22.305Z,76.7
2019-02-10T06:54:22.209Z,76.6
2019-02-10T06:55:22.127Z,76.6
2019-02-10T06:56:21.997Z,76.4
2019-02-10T06:57:21.909Z,76.3
2019-02-10T06:58:21.802Z,76.5
2019-02-10T06:59:21.690Z,76.3
2019-02-10T07:00:21.587Z,76.1
2019-02-10T07:01:21.478Z,76.6
2019-02-10T07:02:21.363Z,76.5
2019-02-10T07:03:21.666Z,76.4
2019-02-10T07:04:21.561Z,76.1
2019-02-10T07:05:21.467Z,76
2019-02-10T07:06:21.359Z,76
2019-02-10T07:07:21.237Z,75.8
2019-02-10T07:08:21.137Z,76
2019-02-10T07:09:21.029Z,76.1
2019-02-10T07:10:20.927Z,76.5
2019-02-10T07:11:20.832Z,76.7
2019-02-10T07:12:20.723Z,77.1
2019-02-10T07:13:21.065Z,78.2
2019-02-10T07:14:20.961Z,77.4
2019-02-10T07:15:20.843Z,77.5
2019-02-10T07:16:20.772Z,77.7
2019-02-10T07:17:20.663Z,77.2
2019-02-10T07:18:20.559Z,76.9
2019-02-10T07:21:19.905Z,75.9
2019-02-10T07:22:19.829Z,76.2
2019-02-10T07:23:20.106Z,76
2019-02-10T07:24:19.999Z,76.6
2019-02-10T07:25:19.922Z,77.1
2019-02-10T07:26:19.812Z,76
2019-02-10T07:27:19.712Z,76.2
2019-02-10T07:28:19.628Z,76.3
2019-02-10T07:29:19.527Z,76.3
2019-02-10T07:30:19.428Z,76.7
2019-02-10T07:31:19.313Z,76.7
2019-02-10T07:32:19.197Z,76.7
2019-02-10T07:33:19.547Z,76.7
2019-02-10T07:34:19.465Z,76.9
2019-02-10T07:35:19.375Z,77
2019-02-10T07:36:19.275Z,76.8
2019-02-10T07:37:19.165Z,76.5
2019-02-10T07:38:19.050Z,76.4
2019-02-10T07:39:18.955Z,76.4
2019-02-10T07:40:18.917Z,76.3
2019-02-10T07:41:18.809Z,76.4
2019-02-10T07:42:18.701Z,76.5
2019-02-10T07:43:19.025Z,76.8
2019-02-10T07:44:18.932Z,76.7
2019-02-10T07:45:18.814Z,76.8
2019-02-10T07:46:18.747Z,77.2
2019-02-10T07:47:18.636Z,77.3
2019-02-10T07:48:18.591Z,77.7
2019-02-10T07:49:18.477Z,77.4
2019-02-10T07:50:18.369Z,77.4
2019-02-10T07:51:18.309Z,77.1
2019-02-10T07:52:18.201Z,76.6
2019-02-10T07:53:18.521Z,76.9
2019-02-10T07:54:18.412Z,76.9
2019-02-10T07:55:18.321Z,76.4
2019-02-10T07:56:18.235Z,76.3
2019-02-10T07:57:18.114Z,76.3
2019-02-10T07:58:18.018Z,77.1
2019-02-10T07:59:17.903Z,76.9
2019-02-10T08:00:17.781Z,77.3
2019-02-10T08:01:17.703Z,77
2019-02-10T08:02:17.578Z,77.5
2019-02-10T08:03:17.905Z,77.8
2019-02-10T08:04:17.845Z,77.8
2019-02-10T08:05:17.735Z,76.9
2019-02-10T08:06:17.656Z,77.1
2019-02-10T08:07:17.561Z,77.1
2019-02-10T08:08:17.516Z,77.4
2019-02-10T08:09:17.407Z,77.7
2019-02-10T08:10:17.307Z,77.3
2019-02-10T08:11:17.203Z,76.9
2019-02-10T08:12:17.108Z,77.1
2019-02-10T08:13:18.292Z,76.5
2019-02-10T08:14:18.170Z,76.5
2019-02-10T08:15:18.055Z,76.9
2019-02-10T08:16:17.941Z,77
2019-02-10T08:17:17.850Z,77
2019-02-10T08:18:17.747Z,76
2019-02-10T08:19:17.643Z,76.1
2019-02-10T08:20:17.525Z,76.7
2019-02-10T08:21:17.537Z,75.8
2019-02-10T08:22:17.537Z,76.3
2019-02-10T08:23:17.887Z,76.2
2019-02-10T08:24:17.774Z,76.1
2019-02-10T08:25:17.697Z,76.1
2019-02-10T08:26:17.621Z,75.9
2019-02-10T08:27:17.534Z,75.9
2019-02-10T08:28:17.447Z,75.9
2019-02-10T08:29:17.395Z,76.1
2019-02-10T08:30:17.322Z,76.4
2019-02-10T08:31:17.221Z,76.3
2019-02-10T08:32:17.116Z,76.4
2019-02-10T08:33:17.456Z,76.5
2019-02-10T08:34:17.378Z,76.4
2019-02-10T08:35:17.279Z,76.3
2019-02-10T08:36:17.163Z,76
2019-02-10T08:37:17.047Z,76.4
2019-02-10T08:38:16.949Z,76.1
2019-02-10T08:39:16.828Z,76.3
2019-02-10T08:40:16.728Z,77.1
2019-02-10T08:41:16.638Z,76.7
2019-02-10T08:42:16.530Z,76.9
2019-02-10T08:43:16.896Z,76.8
2019-02-10T08:44:16.798Z,76.8
2019-02-10T08:45:16.713Z,76.8
2019-02-10T08:46:16.642Z,76.8
2019-02-10T08:47:16.560Z,76.9
2019-02-10T08:48:16.451Z,76.8
2019-02-10T08:49:16.325Z,76.8
2019-02-10T08:50:16.224Z,76.7
2019-02-10T08:51:16.178Z,76.3
2019-02-10T08:52:16.070Z,76.7
2019-02-10T08:53:22.172Z,77
2019-02-10T08:54:22.064Z,76.8
2019-02-10T08:55:21.965Z,76.2
2019-02-10T08:56:21.877Z,76.1
2019-02-10T08:57:21.794Z,76.1
2019-02-10T08:58:21.672Z,76.1
2019-02-10T08:59:21.570Z,76
2019-02-10T09:00:21.485Z,76
2019-02-10T09:01:21.406Z,76
2019-02-10T09:02:21.313Z,76.2
2019-02-10T09:03:21.639Z,76.4
2019-02-10T09:04:21.532Z,76.3
2019-02-10T09:05:21.444Z,76.5
2019-02-10T09:06:21.384Z,76.1
2019-02-10T09:07:21.334Z,76
2019-02-10T09:08:21.230Z,75.5
2019-02-10T09:09:21.153Z,75.4
2019-02-10T09:10:21.046Z,74.3
2019-02-10T09:11:20.944Z,73.6
2019-02-10T09:12:20.866Z,73.9
2019-02-10T09:13:21.194Z,73.8
2019-02-10T09:14:21.106Z,73
2019-02-10T09:15:21.056Z,72.9
2019-02-10T09:16:20.962Z,73.2
2019-02-10T09:17:20.863Z,72.8
2019-02-10T09:18:20.768Z,72.5
2019-02-10T09:19:21.258Z,72
2019-02-10T09:20:21.164Z,71.5
2019-02-10T09:21:21.053Z,71.5
2019-02-10T09:22:20.954Z,71.4
2019-02-10T09:23:21.324Z,71.4
2019-02-10T09:24:21.232Z,71.4
2019-02-10T09:25:21.180Z,71.5
2019-02-10T09:26:21.072Z,71.7
2019-02-10T09:27:20.981Z,71.7
2019-02-10T09:28:20.875Z,71.4
2019-02-10T09:29:20.772Z,71.9
2019-02-10T09:30:20.669Z,71.9
2019-02-10T09:31:20.546Z,71.9
2019-02-10T09:32:20.454Z,71.9
2019-02-10T09:33:20.895Z,71.8
2019-02-10T09:34:20.825Z,71.8
2019-02-10T09:35:20.707Z,71.2
2019-02-10T09:36:20.585Z,70.9
2019-02-10T09:37:20.504Z,71.1
2019-02-10T09:38:20.402Z,71.1
2019-02-10T09:39:20.287Z,71.2
2019-02-10T09:40:20.206Z,71.5
2019-02-10T09:41:20.113Z,71.2
2019-02-10T09:42:20.010Z,71.3
2019-02-10T09:43:20.348Z,71.7
2019-02-10T09:44:20.239Z,71.6
2019-02-10T09:45:20.117Z,71.4
2019-02-10T09:46:19.999Z,71
2019-02-10T09:47:19.900Z,70.1
2019-02-10T09:48:19.792Z,70.2
2019-02-10T09:49:19.703Z,70.3
2019-02-10T09:50:19.616Z,70.3
2019-02-10T09:51:19.577Z,71.1
2019-02-10T09:52:19.475Z,70.9
2019-02-10T09:53:19.839Z,70.7
2019-02-10T09:54:19.745Z,69.3
2019-02-10T09:55:19.663Z,68.4
2019-02-10T09:56:19.581Z,68.3
2019-02-10T09:57:19.498Z,67.5
2019-02-10T09:58:19.412Z,67.5
2019-02-10T09:59:19.350Z,67.2
2019-02-10T10:00:19.281Z,67.8
2019-02-10T10:01:19.226Z,66.4
2019-02-10T10:02:19.184Z,66.1
2019-02-10T10:03:19.525Z,66.2
2019-02-10T10:04:19.413Z,66.7
2019-02-10T10:05:19.378Z,67.7
2019-02-10T10:06:19.276Z,67.2
2019-02-10T10:07:19.208Z,66.9
2019-02-10T10:08:19.116Z,67.4
2019-02-10T10:09:20.378Z,67.4
2019-02-10T10:10:20.293Z,67.5
2019-02-10T10:11:20.196Z,67
2019-02-10T10:12:20.095Z,66.9
2019-02-10T10:13:20.515Z,67.2
2019-02-10T10:14:20.488Z,67
2019-02-10T10:15:20.383Z,67.2
2019-02-10T10:16:20.297Z,66.7
2019-02-10T10:17:20.192Z,67.2
2019-02-10T10:18:20.090Z,67.4
2019-02-10T10:19:19.990Z,67.4
2019-02-10T10:20:19.896Z,67.3
2019-02-10T10:21:19.829Z,67.3
2019-02-10T10:22:19.717Z,67.1
2019-02-10T10:23:20.047Z,66.7
2019-02-10T10:24:19.958Z,66.2
2019-02-10T10:25:19.853Z,66.8
2019-02-10T10:26:19.745Z,66.1
2019-02-10T10:27:19.655Z,66.2
2019-02-10T10:28:19.597Z,66.3
2019-02-10T10:29:19.510Z,65.4
2019-02-10T10:30:19.411Z,65.5
2019-02-10T10:31:19.318Z,66.1
2019-02-10T10:32:19.231Z,65.8
2019-02-10T10:33:19.579Z,66.2
2019-02-10T10:34:19.482Z,65
2019-02-10T10:35:22.037Z,65
2019-02-10T10:36:21.929Z,62.5
2019-02-10T10:37:21.876Z,62.1
2019-02-10T10:38:21.841Z,62.4
2019-02-10T10:39:28.195Z,62.5
2019-02-10T10:40:28.124Z,61.7
2019-02-10T10:41:28.031Z,63
2019-02-10T10:42:27.970Z,60.5
2019-02-10T10:43:28.307Z,60.7
2019-02-10T10:44:28.223Z,60.2
2019-02-10T10:45:28.142Z,60.1
2019-02-10T10:46:30.790Z,59.9
2019-02-10T10:47:30.721Z,59.4
2019-02-10T10:48:30.623Z,59.2
2019-02-10T10:49:30.532Z,59.1
2019-02-10T10:50:30.486Z,59.3
2019-02-10T10:51:30.392Z,59.4
2019-02-10T10:52:30.299Z,59.1
2019-02-10T10:53:30.686Z,58.5
2019-02-10T10:54:30.593Z,59
2019-02-10T10:55:30.492Z,59.1
2019-02-10T10:56:30.395Z,59
2019-02-10T10:57:30.299Z,59
2019-02-10T10:58:30.270Z,59.6
2019-02-10T10:59:30.199Z,59.6
2019-02-10T11:00:30.081Z,59.4
2019-02-10T11:01:29.967Z,59.6
2019-02-10T11:02:29.849Z,59.8
2019-02-10T11:03:30.176Z,60.1
2019-02-10T11:04:30.124Z,60.2
2019-02-10T11:05:30.037Z,60.4
2019-02-10T11:06:29.932Z,61.2
2019-02-10T11:07:29.816Z,60.9
2019-02-10T11:08:29.731Z,59.8
2019-02-10T11:09:36.383Z,60.2
2019-02-10T11:10:36.275Z,59.6
2019-02-10T11:11:36.171Z,59.4
2019-02-10T11:12:36.071Z,58.9
2019-02-10T11:13:36.411Z,57.9
2019-02-10T11:14:36.319Z,57.5
2019-02-10T11:15:36.225Z,56.7
2019-02-10T11:16:36.129Z,56.1
2019-02-10T11:17:36.032Z,56.4
2019-02-10T11:18:35.945Z,57.4
2019-02-10T11:19:35.866Z,58
2019-02-10T11:20:35.772Z,56.7
2019-02-10T11:21:35.674Z,57.1
2019-02-10T11:22:35.595Z,57.3
2019-02-10T11:23:35.913Z,57.5
2019-02-10T11:24:35.824Z,55.2
2019-02-10T11:25:35.739Z,54.4
2019-02-10T11:26:35.637Z,54.7
2019-02-10T11:27:35.516Z,53.1
2019-02-10T11:28:35.419Z,53.5
2019-02-10T11:29:35.310Z,53.5
2019-02-10T11:30:35.234Z,53.5
2019-02-10T11:31:35.135Z,50.7
2019-02-10T11:32:35.025Z,50.8
2019-02-10T11:33:35.352Z,50.4
2019-02-10T11:34:35.243Z,50.3
2019-02-10T11:35:35.150Z,50.2
2019-02-10T11:36:35.041Z,51.3
2019-02-10T11:37:34.927Z,51.3
2019-02-10T11:38:34.817Z,50.1
2019-02-10T11:39:34.712Z,50.1
2019-02-10T11:40:34.585Z,49.8
2019-02-10T11:41:34.503Z,49.3
2019-02-10T11:42:34.399Z,50.3
2019-02-10T11:43:34.814Z,49
2019-02-10T11:44:34.703Z,49.2
2019-02-10T11:45:34.593Z,48.7
2019-02-10T11:46:34.535Z,49
2019-02-10T11:47:34.425Z,48.9
2019-02-10T11:48:34.327Z,48.6
2019-02-10T11:49:34.229Z,48
2019-02-10T11:50:34.128Z,48.9
2019-02-10T11:51:34.010Z,47.7
2019-02-10T11:52:33.926Z,47.8
2019-02-10T11:53:34.264Z,48
2019-02-10T11:54:34.219Z,48.2
2019-02-10T11:55:34.113Z,47.7
2019-02-10T11:56:34.017Z,47.3
2019-02-10T11:57:33.938Z,47.4
2019-02-10T11:58:33.844Z,47.5
2019-02-10T11:59:33.747Z,47.9
2019-02-10T12:00:33.640Z,47.2
2019-02-10T12:01:33.524Z,47.3
2019-02-10T12:02:38.810Z,48.3
2019-02-10T12:03:39.168Z,47.5
2019-02-10T12:04:39.069Z,47.6
2019-02-10T12:05:38.968Z,46.5
2019-02-10T12:06:38.867Z,46.4
2019-02-10T12:07:39.822Z,47
2019-02-10T12:08:39.741Z,47
2019-02-10T12:09:39.650Z,46.8
2019-02-10T12:10:39.555Z,47.5
2019-02-10T12:11:39.450Z,46.5
2019-02-10T12:12:39.346Z,46.1
2019-02-10T12:13:41.312Z,46.9
2019-02-10T12:14:41.214Z,47
2019-02-10T12:15:41.175Z,47.3
2019-02-10T12:16:41.069Z,46.8
2019-02-10T12:17:40.974Z,47.4
2019-02-10T12:18:40.905Z,48.1
2019-02-10T12:19:40.813Z,47.8
2019-02-10T12:20:40.695Z,47.2
2019-02-10T12:21:40.593Z,47.7
2019-02-10T12:22:40.488Z,48
2019-02-10T12:23:40.839Z,48.7
2019-02-10T12:24:40.782Z,47.7
2019-02-10T12:25:40.682Z,47
2019-02-10T12:26:40.605Z,47
2019-02-10T12:27:40.537Z,47
2019-02-10T12:28:40.426Z,47.2
2019-02-10T12:29:40.341Z,47.2
2019-02-10T12:30:40.230Z,47
2019-02-10T12:31:40.132Z,46.9
2019-02-10T12:32:40.032Z,47
2019-02-10T12:33:40.417Z,47.2
2019-02-10T12:34:40.349Z,47
2019-02-10T12:35:40.259Z,46.7
2019-02-10T12:36:40.182Z,46.2
2019-02-10T12:37:40.094Z,46.8
2019-02-10T12:38:40.006Z,45.9
2019-02-10T12:39:39.909Z,46.5
2019-02-10T12:40:39.830Z,46.7
2019-02-10T12:41:39.768Z,46.3
2019-02-10T12:42:39.747Z,46.1
2019-02-10T12:43:40.090Z,45.9
2019-02-10T12:44:39.994Z,46.2
2019-02-10T12:45:39.900Z,46.3
2019-02-10T12:46:39.798Z,45.9
2019-02-10T12:47:39.711Z,46.3
2019-02-10T12:48:39.606Z,46.6
2019-02-10T12:49:39.492Z,46.9
2019-02-10T12:50:39.413Z,46.5
2019-02-10T12:51:39.306Z,46.1
2019-02-10T12:52:39.208Z,46.1
2019-02-10T12:53:39.530Z,46.7
2019-02-10T12:54:39.420Z,46.2
2019-02-10T12:55:39.330Z,46.7
2019-02-10T12:56:39.216Z,46.6
2019-02-10T12:57:39.138Z,47.1
2019-02-10T12:58:39.028Z,46.3
2019-02-10T12:59:38.924Z,46.4
2019-02-10T13:00:38.827Z,46.2
2019-02-10T13:01:38.739Z,45.8
2019-02-10T13:02:38.640Z,45.2
2019-02-10T13:03:38.976Z,45.6
2019-02-10T13:04:38.900Z,45.9
2019-02-10T13:05:38.788Z,46.6
2019-02-10T13:06:38.703Z,46.7
2019-02-10T13:07:38.604Z,46.3
2019-02-10T13:08:38.499Z,46.8
2019-02-10T13:09:38.408Z,46
2019-02-10T13:10:38.297Z,46.6
2019-02-10T13:11:38.215Z,46.4
2019-02-10T13:12:38.109Z,46.2
2019-02-10T13:13:38.509Z,46.1
2019-02-10T13:14:38.379Z,46.1
2019-02-10T13:15:38.470Z,45.8
2019-02-10T13:16:38.370Z,45.9
2019-02-10T13:17:38.266Z,45.8
2019-02-10T13:18:38.177Z,46.2
2019-02-10T13:19:38.089Z,45.7
2019-02-10T13:20:37.977Z,45.9
2019-02-10T13:21:38.324Z,46.2
2019-02-10T13:22:38.226Z,46.3
2019-02-10T13:23:38.560Z,46.4
2019-02-10T13:24:38.448Z,46.3
2019-02-10T13:25:38.346Z,46.2
2019-02-10T13:26:39.264Z,46.2
2019-02-10T13:27:39.176Z,46.5
2019-02-10T13:28:39.065Z,45.9
2019-02-10T13:29:38.963Z,46.2
2019-02-10T13:30:38.916Z,46.2
2019-02-10T13:31:38.814Z,46.9
2019-02-10T13:32:38.734Z,46.3
2019-02-10T13:33:39.174Z,46.4
2019-02-10T13:34:39.125Z,47
2019-02-10T13:35:39.128Z,46.9
2019-02-10T13:36:39.049Z,46.9
2019-02-10T13:37:38.954Z,46.6
2019-02-10T13:38:38.865Z,47
2019-02-10T13:39:38.775Z,47.2
2019-02-10T13:40:38.669Z,47.1
2019-02-10T13:41:38.581Z,47
2019-02-10T13:42:38.477Z,47.2
2019-02-10T13:43:38.775Z,47.1
2019-02-10T13:44:38.695Z,46.7
2019-02-10T13:45:38.596Z,46.9